sensor_id;sensor_type;location;lat;lon;timestamp;P1;durP1;ratioP1;P2;durP2;ratioP2
48897;SDS011;34713;50.038;20.000;2023-02-26T00:00:04;12.10;;;8.60;;
48897;SDS011;34713;50.038;20.000;2023-02-26T00:12:34;13.80;;;9.00;;
48897;SDS011;34713;50.038;20.000;2023-02-26T00:15:10;16.10;;;9.90;;
48897;SDS011;34713;50.038;20.000;2023-02-26T00:21:13;10.70;;;8.60;;
48897;SDS011;34713;50.038;20.000;2023-02-26T00:34:24;9.80;;;6.70;;
48897;SDS011;34713;50.038;20.000;2023-02-26T00:43:56;8.00;;;6.20;;
48897;SDS011;34713;50.038;20.000;2023-02-26T01:09:23;5.00;;;3.60;;
48897;SDS011;34713;50.038;20.000;2023-02-26T01:15:28;8.20;;;3.70;;
48897;SDS011;34713;50.038;20.000;2023-02-26T01:18:14;5.10;;;3.50;;
48897;SDS011;34713;50.038;20.000;2023-02-26T01:23:54;7.30;;;3.90;;
48897;SDS011;34713;50.038;20.000;2023-02-26T01:26:32;8.80;;;4.90;;
48897;SDS011;34713;50.038;20.000;2023-02-26T01:42:00;6.80;;;4.30;;
48897;SDS011;34713;50.038;20.000;2023-02-26T01:54:42;5.00;;;3.70;;
48897;SDS011;34713;50.038;20.000;2023-02-26T01:57:37;6.70;;;3.70;;
48897;SDS011;34713;50.038;20.000;2023-02-26T02:03:42;6.10;;;4.30;;
48897;SDS011;34713;50.038;20.000;2023-02-26T02:06:20;5.60;;;4.00;;
48897;SDS011;34713;50.038;20.000;2023-02-26T02:15:45;6.10;;;4.00;;
48897;SDS011;34713;50.038;20.000;2023-02-26T02:24:44;6.30;;;4.00;;
48897;SDS011;34713;50.038;20.000;2023-02-26T02:34:10;5.70;;;3.60;;
48897;SDS011;34713;50.038;20.000;2023-02-26T02:36:54;5.30;;;3.70;;
48897;SDS011;34713;50.038;20.000;2023-02-26T02:39:53;5.30;;;3.10;;
48897;SDS011;34713;50.038;20.000;2023-02-26T02:43:17;5.50;;;3.20;;
48897;SDS011;34713;50.038;20.000;2023-02-26T02:45:51;5.50;;;3.20;;
48897;SDS011;34713;50.038;20.000;2023-02-26T02:48:34;5.90;;;3.40;;
48897;SDS011;34713;50.038;20.000;2023-02-26T02:54:05;6.30;;;3.50;;
48897;SDS011;34713;50.038;20.000;2023-02-26T03:00:25;5.90;;;3.30;;
48897;SDS011;34713;50.038;20.000;2023-02-26T03:06:10;5.30;;;3.10;;
48897;SDS011;34713;50.038;20.000;2023-02-26T03:11:49;5.40;;;2.90;;
48897;SDS011;34713;50.038;20.000;2023-02-26T03:17:01;5.40;;;3.50;;
48897;SDS011;34713;50.038;20.000;2023-02-26T03:30:18;5.40;;;3.40;;
48897;SDS011;34713;50.038;20.000;2023-02-26T03:49:11;5.00;;;3.40;;
48897;SDS011;34713;50.038;20.000;2023-02-26T03:58:01;4.50;;;3.10;;
48897;SDS011;34713;50.038;20.000;2023-02-26T04:00:37;5.80;;;3.30;;
48897;SDS011;34713;50.038;20.000;2023-02-26T04:10:09;4.00;;;2.60;;
48897;SDS011;34713;50.038;20.000;2023-02-26T04:13:00;4.80;;;2.80;;
48897;SDS011;34713;50.038;20.000;2023-02-26T04:22:53;4.90;;;2.60;;
48897;SDS011;34713;50.038;20.000;2023-02-26T04:35:20;4.20;;;2.00;;
48897;SDS011;34713;50.038;20.000;2023-02-26T04:41:38;3.00;;;1.90;;
48897;SDS011;34713;50.038;20.000;2023-02-26T04:57:08;5.00;;;2.30;;
48897;SDS011;34713;50.038;20.000;2023-02-26T05:02:41;3.30;;;2.10;;
48897;SDS011;34713;50.038;20.000;2023-02-26T05:05:13;4.70;;;2.00;;
48897;SDS011;34713;50.038;20.000;2023-02-26T05:14:13;3.60;;;1.70;;
48897;SDS011;34713;50.038;20.000;2023-02-26T05:17:25;2.90;;;1.60;;
48897;SDS011;34713;50.038;20.000;2023-02-26T05:20:49;4.00;;;2.10;;
48897;SDS011;34713;50.038;20.000;2023-02-26T05:30:51;5.10;;;1.80;;
48897;SDS011;34713;50.038;20.000;2023-02-26T05:40:37;2.60;;;2.00;;
48897;SDS011;34713;50.038;20.000;2023-02-26T05:47:30;3.60;;;2.10;;
48897;SDS011;34713;50.038;20.000;2023-02-26T05:50:27;3.50;;;1.60;;
48897;SDS011;34713;50.038;20.000;2023-02-26T06:02:29;3.90;;;1.90;;
48897;SDS011;34713;50.038;20.000;2023-02-26T06:05:21;4.90;;;2.30;;
48897;SDS011;34713;50.038;20.000;2023-02-26T06:08:01;3.10;;;2.20;;
48897;SDS011;34713;50.038;20.000;2023-02-26T06:14:27;3.80;;;2.40;;
48897;SDS011;34713;50.038;20.000;2023-02-26T06:16:58;6.50;;;2.70;;
48897;SDS011;34713;50.038;20.000;2023-02-26T06:19:39;3.80;;;2.40;;
48897;SDS011;34713;50.038;20.000;2023-02-26T06:22:35;4.40;;;2.40;;
48897;SDS011;34713;50.038;20.000;2023-02-26T06:25:31;3.30;;;2.40;;
48897;SDS011;34713;50.038;20.000;2023-02-26T06:31:29;4.70;;;2.60;;
48897;SDS011;34713;50.038;20.000;2023-02-26T06:37:47;7.50;;;2.30;;
48897;SDS011;34713;50.038;20.000;2023-02-26T06:40:25;5.30;;;2.60;;
48897;SDS011;34713;50.038;20.000;2023-02-26T06:43:21;4.90;;;3.00;;
48897;SDS011;34713;50.038;20.000;2023-02-26T06:45:50;6.30;;;3.00;;
48897;SDS011;34713;50.038;20.000;2023-02-26T06:48:26;5.40;;;2.50;;
48897;SDS011;34713;50.038;20.000;2023-02-26T06:50:53;5.90;;;2.70;;
48897;SDS011;34713;50.038;20.000;2023-02-26T06:56:37;8.90;;;2.90;;
48897;SDS011;34713;50.038;20.000;2023-02-26T06:59:04;4.40;;;2.50;;
48897;SDS011;34713;50.038;20.000;2023-02-26T07:01:57;4.90;;;2.80;;
48897;SDS011;34713;50.038;20.000;2023-02-26T07:04:24;4.90;;;2.50;;
48897;SDS011;34713;50.038;20.000;2023-02-26T07:10:20;6.70;;;2.70;;
48897;SDS011;34713;50.038;20.000;2023-02-26T07:13:07;5.20;;;3.00;;
48897;SDS011;34713;50.038;20.000;2023-02-26T07:22:44;4.80;;;2.40;;
48897;SDS011;34713;50.038;20.000;2023-02-26T07:25:23;5.60;;;2.90;;
48897;SDS011;34713;50.038;20.000;2023-02-26T07:27:59;6.30;;;2.70;;
48897;SDS011;34713;50.038;20.000;2023-02-26T07:33:57;4.60;;;2.60;;
48897;SDS011;34713;50.038;20.000;2023-02-26T07:39:40;7.00;;;3.20;;
48897;SDS011;34713;50.038;20.000;2023-02-26T07:42:09;5.60;;;2.80;;
48897;SDS011;34713;50.038;20.000;2023-02-26T07:58:17;7.90;;;3.10;;
48897;SDS011;34713;50.038;20.000;2023-02-26T08:04:31;4.10;;;2.20;;
48897;SDS011;34713;50.038;20.000;2023-02-26T08:11:15;5.90;;;2.50;;
48897;SDS011;34713;50.038;20.000;2023-02-26T08:17:02;3.20;;;2.00;;
48897;SDS011;34713;50.038;20.000;2023-02-26T08:23:16;4.80;;;2.10;;
48897;SDS011;34713;50.038;20.000;2023-02-26T08:29:12;5.70;;;2.40;;
48897;SDS011;34713;50.038;20.000;2023-02-26T08:39:01;3.70;;;2.20;;
48897;SDS011;34713;50.038;20.000;2023-02-26T08:42:11;5.40;;;2.30;;
48897;SDS011;34713;50.038;20.000;2023-02-26T08:48:04;5.30;;;2.70;;
48897;SDS011;34713;50.038;20.000;2023-02-26T08:54:22;4.20;;;2.70;;
48897;SDS011;34713;50.038;20.000;2023-02-26T08:57:29;5.30;;;2.60;;
48897;SDS011;34713;50.038;20.000;2023-02-26T09:03:25;5.50;;;2.30;;
48897;SDS011;34713;50.038;20.000;2023-02-26T09:11:46;3.90;;;2.30;;
48897;SDS011;34713;50.038;20.000;2023-02-26T09:33:45;3.40;;;1.60;;
48897;SDS011;34713;50.038;20.000;2023-02-26T09:37:03;3.90;;;2.30;;
48897;SDS011;34713;50.038;20.000;2023-02-26T09:40:31;3.00;;;1.80;;
48897;SDS011;34713;50.038;20.000;2023-02-26T09:43:54;2.80;;;1.90;;
48897;SDS011;34713;50.038;20.000;2023-02-26T10:24:23;3.30;;;1.60;;
48897;SDS011;34713;50.038;20.000;2023-02-26T10:27:15;3.60;;;1.60;;
48897;SDS011;34713;50.038;20.000;2023-02-26T10:36:10;3.10;;;1.80;;
48897;SDS011;34713;50.038;20.000;2023-02-26T10:39:29;3.80;;;1.70;;
48897;SDS011;34713;50.038;20.000;2023-02-26T11:02:37;4.10;;;2.10;;
48897;SDS011;34713;50.038;20.000;2023-02-26T11:05:29;4.00;;;2.10;;
48897;SDS011;34713;50.038;20.000;2023-02-26T11:17:55;4.30;;;2.30;;
48897;SDS011;34713;50.038;20.000;2023-02-26T11:21:00;2.80;;;1.70;;
48897;SDS011;34713;50.038;20.000;2023-02-26T11:23:57;3.20;;;1.40;;
48897;SDS011;34713;50.038;20.000;2023-02-26T11:27:00;2.50;;;1.70;;
48897;SDS011;34713;50.038;20.000;2023-02-26T11:29:36;4.20;;;2.20;;
48897;SDS011;34713;50.038;20.000;2023-02-26T11:34:59;3.90;;;2.30;;
48897;SDS011;34713;50.038;20.000;2023-02-26T11:38:09;5.20;;;2.40;;
48897;SDS011;34713;50.038;20.000;2023-02-26T11:47:52;4.80;;;2.00;;
48897;SDS011;34713;50.038;20.000;2023-02-26T11:50:51;3.90;;;2.60;;
48897;SDS011;34713;50.038;20.000;2023-02-26T11:53:51;3.40;;;2.10;;
48897;SDS011;34713;50.038;20.000;2023-02-26T12:00:43;3.30;;;1.80;;
48897;SDS011;34713;50.038;20.000;2023-02-26T12:08:54;5.20;;;2.60;;
48897;SDS011;34713;50.038;20.000;2023-02-26T12:52:41;8.10;;;2.40;;
48897;SDS011;34713;50.038;20.000;2023-02-26T13:05:34;3.00;;;1.90;;
48897;SDS011;34713;50.038;20.000;2023-02-26T13:22:36;4.90;;;2.60;;
48897;SDS011;34713;50.038;20.000;2023-02-26T13:24:54;4.60;;;2.90;;
48897;SDS011;34713;50.038;20.000;2023-02-26T13:28:05;5.10;;;2.90;;
48897;SDS011;34713;50.038;20.000;2023-02-26T13:30:54;5.20;;;2.70;;
48897;SDS011;34713;50.038;20.000;2023-02-26T13:34:09;4.30;;;2.70;;
48897;SDS011;34713;50.038;20.000;2023-02-26T13:36:42;4.90;;;2.50;;
48897;SDS011;34713;50.038;20.000;2023-02-26T14:00:40;4.50;;;2.20;;
48897;SDS011;34713;50.038;20.000;2023-02-26T14:12:36;4.70;;;2.60;;
48897;SDS011;34713;50.038;20.000;2023-02-26T14:23:50;6.30;;;2.70;;
48897;SDS011;34713;50.038;20.000;2023-02-26T14:26:22;5.10;;;2.80;;
48897;SDS011;34713;50.038;20.000;2023-02-26T14:34:33;6.00;;;3.10;;
48897;SDS011;34713;50.038;20.000;2023-02-26T14:37:04;5.20;;;3.10;;
48897;SDS011;34713;50.038;20.000;2023-02-26T14:39:35;7.40;;;2.90;;
48897;SDS011;34713;50.038;20.000;2023-02-26T14:42:05;5.80;;;3.50;;
48897;SDS011;34713;50.038;20.000;2023-02-26T14:44:44;4.50;;;2.80;;
48897;SDS011;34713;50.038;20.000;2023-02-26T14:47:13;5.70;;;3.00;;
48897;SDS011;34713;50.038;20.000;2023-02-26T14:49:45;6.20;;;2.70;;
48897;SDS011;34713;50.038;20.000;2023-02-26T14:52:18;6.10;;;3.00;;
48897;SDS011;34713;50.038;20.000;2023-02-26T14:55:05;7.40;;;3.10;;
48897;SDS011;34713;50.038;20.000;2023-02-26T15:06:53;7.30;;;3.50;;
48897;SDS011;34713;50.038;20.000;2023-02-26T15:09:51;6.90;;;3.50;;
48897;SDS011;34713;50.038;20.000;2023-02-26T15:18:42;6.40;;;3.00;;
48897;SDS011;34713;50.038;20.000;2023-02-26T15:27:57;4.90;;;2.70;;
48897;SDS011;34713;50.038;20.000;2023-02-26T15:30:24;5.40;;;3.00;;
48897;SDS011;34713;50.038;20.000;2023-02-26T15:33:02;4.80;;;2.90;;
48897;SDS011;34713;50.038;20.000;2023-02-26T15:35:30;5.80;;;2.50;;
48897;SDS011;34713;50.038;20.000;2023-02-26T15:38:21;4.10;;;2.60;;
48897;SDS011;34713;50.038;20.000;2023-02-26T15:40:48;3.60;;;2.50;;
48897;SDS011;34713;50.038;20.000;2023-02-26T15:43:20;7.30;;;2.60;;
48897;SDS011;34713;50.038;20.000;2023-02-26T15:46:11;3.50;;;2.30;;
48897;SDS011;34713;50.038;20.000;2023-02-26T15:48:38;5.10;;;2.50;;
48897;SDS011;34713;50.038;20.000;2023-02-26T15:54:31;4.60;;;3.00;;
48897;SDS011;34713;50.038;20.000;2023-02-26T15:57:49;5.30;;;2.90;;
48897;SDS011;34713;50.038;20.000;2023-02-26T16:00:35;5.20;;;2.70;;
48897;SDS011;34713;50.038;20.000;2023-02-26T16:03:05;6.40;;;3.00;;
48897;SDS011;34713;50.038;20.000;2023-02-26T16:05:32;6.90;;;3.20;;
48897;SDS011;34713;50.038;20.000;2023-02-26T16:07:59;4.80;;;2.40;;
48897;SDS011;34713;50.038;20.000;2023-02-26T16:10:31;7.00;;;2.90;;
48897;SDS011;34713;50.038;20.000;2023-02-26T16:13:30;5.70;;;2.90;;
48897;SDS011;34713;50.038;20.000;2023-02-26T16:16:09;9.60;;;4.20;;
48897;SDS011;34713;50.038;20.000;2023-02-26T16:18:57;6.70;;;3.40;;
48897;SDS011;34713;50.038;20.000;2023-02-26T16:21:48;5.80;;;3.20;;
48897;SDS011;34713;50.038;20.000;2023-02-26T16:24:18;5.30;;;3.00;;
48897;SDS011;34713;50.038;20.000;2023-02-26T16:26:52;7.90;;;3.80;;
48897;SDS011;34713;50.038;20.000;2023-02-26T16:35:56;7.50;;;3.90;;
48897;SDS011;34713;50.038;20.000;2023-02-26T16:38:41;5.90;;;3.30;;
48897;SDS011;34713;50.038;20.000;2023-02-26T16:41:32;7.40;;;4.10;;
48897;SDS011;34713;50.038;20.000;2023-02-26T16:47:57;10.20;;;3.90;;
48897;SDS011;34713;50.038;20.000;2023-02-26T16:51:07;7.30;;;4.10;;
48897;SDS011;34713;50.038;20.000;2023-02-26T16:54:08;7.40;;;3.70;;
48897;SDS011;34713;50.038;20.000;2023-02-26T16:57:02;6.80;;;4.10;;
48897;SDS011;34713;50.038;20.000;2023-02-26T17:03:04;8.30;;;4.00;;
48897;SDS011;34713;50.038;20.000;2023-02-26T17:22:02;5.70;;;3.60;;
48897;SDS011;34713;50.038;20.000;2023-02-26T17:24:58;8.60;;;4.00;;
48897;SDS011;34713;50.038;20.000;2023-02-26T17:27:34;8.30;;;4.10;;
48897;SDS011;34713;50.038;20.000;2023-02-26T17:30:02;7.30;;;3.90;;
48897;SDS011;34713;50.038;20.000;2023-02-26T17:32:31;6.20;;;3.80;;
48897;SDS011;34713;50.038;20.000;2023-02-26T17:35:18;7.10;;;3.80;;
48897;SDS011;34713;50.038;20.000;2023-02-26T17:41:10;8.70;;;4.40;;
48897;SDS011;34713;50.038;20.000;2023-02-26T17:53:32;6.40;;;3.80;;
48897;SDS011;34713;50.038;20.000;2023-02-26T17:59:40;6.80;;;4.00;;
48897;SDS011;34713;50.038;20.000;2023-02-26T18:02:17;7.10;;;3.80;;
48897;SDS011;34713;50.038;20.000;2023-02-26T18:05:09;7.80;;;4.20;;
48897;SDS011;34713;50.038;20.000;2023-02-26T18:07:39;9.00;;;5.10;;
48897;SDS011;34713;50.038;20.000;2023-02-26T18:10:06;6.50;;;3.90;;
48897;SDS011;34713;50.038;20.000;2023-02-26T18:12:33;7.70;;;4.40;;
48897;SDS011;34713;50.038;20.000;2023-02-26T18:15:00;10.50;;;4.40;;
48897;SDS011;34713;50.038;20.000;2023-02-26T18:17:35;8.90;;;5.40;;
48897;SDS011;34713;50.038;20.000;2023-02-26T18:20:03;8.90;;;4.50;;
48897;SDS011;34713;50.038;20.000;2023-02-26T18:22:33;7.70;;;4.40;;
48897;SDS011;34713;50.038;20.000;2023-02-26T18:25:22;8.00;;;4.40;;
48897;SDS011;34713;50.038;20.000;2023-02-26T18:27:49;7.40;;;4.70;;
48897;SDS011;34713;50.038;20.000;2023-02-26T18:30:31;8.10;;;4.50;;
48897;SDS011;34713;50.038;20.000;2023-02-26T18:33:01;7.30;;;4.30;;
48897;SDS011;34713;50.038;20.000;2023-02-26T18:35:28;10.60;;;4.80;;
48897;SDS011;34713;50.038;20.000;2023-02-26T18:37:55;9.10;;;4.00;;
48897;SDS011;34713;50.038;20.000;2023-02-26T18:40:23;10.60;;;4.80;;
48897;SDS011;34713;50.038;20.000;2023-02-26T18:42:51;6.80;;;4.00;;
48897;SDS011;34713;50.038;20.000;2023-02-26T18:45:19;7.60;;;4.80;;
48897;SDS011;34713;50.038;20.000;2023-02-26T18:47:46;7.10;;;4.20;;
48897;SDS011;34713;50.038;20.000;2023-02-26T18:50:14;7.80;;;4.40;;
48897;SDS011;34713;50.038;20.000;2023-02-26T18:52:42;9.90;;;4.70;;
48897;SDS011;34713;50.038;20.000;2023-02-26T18:55:29;8.40;;;4.30;;
48897;SDS011;34713;50.038;20.000;2023-02-26T18:57:56;7.00;;;4.10;;
48897;SDS011;34713;50.038;20.000;2023-02-26T19:00:33;8.70;;;4.90;;
48897;SDS011;34713;50.038;20.000;2023-02-26T19:03:03;7.70;;;4.10;;
48897;SDS011;34713;50.038;20.000;2023-02-26T19:05:30;8.10;;;4.60;;
48897;SDS011;34713;50.038;20.000;2023-02-26T19:07:57;8.30;;;4.70;;
48897;SDS011;34713;50.038;20.000;2023-02-26T19:10:25;10.70;;;4.30;;
48897;SDS011;34713;50.038;20.000;2023-02-26T19:12:54;12.10;;;5.10;;
48897;SDS011;34713;50.038;20.000;2023-02-26T19:15:21;7.20;;;4.60;;
48897;SDS011;34713;50.038;20.000;2023-02-26T19:17:58;8.50;;;4.80;;
48897;SDS011;34713;50.038;20.000;2023-02-26T19:20:28;6.80;;;4.00;;
48897;SDS011;34713;50.038;20.000;2023-02-26T19:23:00;9.30;;;4.50;;
48897;SDS011;34713;50.038;20.000;2023-02-26T19:25:28;9.80;;;4.40;;
48897;SDS011;34713;50.038;20.000;2023-02-26T19:27:58;9.00;;;4.50;;
48897;SDS011;34713;50.038;20.000;2023-02-26T19:30:25;8.80;;;4.10;;
48897;SDS011;34713;50.038;20.000;2023-02-26T19:32:59;10.10;;;4.70;;
48897;SDS011;34713;50.038;20.000;2023-02-26T19:35:26;8.50;;;4.40;;
48897;SDS011;34713;50.038;20.000;2023-02-26T19:37:57;9.00;;;4.50;;
48897;SDS011;34713;50.038;20.000;2023-02-26T19:40:24;10.60;;;5.20;;
48897;SDS011;34713;50.038;20.000;2023-02-26T19:43:00;9.20;;;4.70;;
48897;SDS011;34713;50.038;20.000;2023-02-26T19:45:48;8.40;;;3.80;;
48897;SDS011;34713;50.038;20.000;2023-02-26T19:48:15;7.90;;;4.80;;
48897;SDS011;34713;50.038;20.000;2023-02-26T19:50:42;7.80;;;4.40;;
48897;SDS011;34713;50.038;20.000;2023-02-26T19:53:09;7.50;;;4.30;;
48897;SDS011;34713;50.038;20.000;2023-02-26T19:55:39;8.40;;;4.00;;
48897;SDS011;34713;50.038;20.000;2023-02-26T19:58:06;11.00;;;5.10;;
48897;SDS011;34713;50.038;20.000;2023-02-26T20:00:36;11.30;;;5.00;;
48897;SDS011;34713;50.038;20.000;2023-02-26T20:03:08;9.50;;;5.00;;
48897;SDS011;34713;50.038;20.000;2023-02-26T20:05:35;10.60;;;4.80;;
48897;SDS011;34713;50.038;20.000;2023-02-26T20:08:02;10.00;;;4.50;;
48897;SDS011;34713;50.038;20.000;2023-02-26T20:10:29;8.60;;;4.60;;
48897;SDS011;34713;50.038;20.000;2023-02-26T20:12:57;9.70;;;5.10;;
48897;SDS011;34713;50.038;20.000;2023-02-26T20:15:24;12.20;;;5.10;;
48897;SDS011;34713;50.038;20.000;2023-02-26T20:17:51;10.00;;;5.30;;
48897;SDS011;34713;50.038;20.000;2023-02-26T20:20:17;12.00;;;5.40;;
48897;SDS011;34713;50.038;20.000;2023-02-26T20:22:45;12.30;;;5.80;;
48897;SDS011;34713;50.038;20.000;2023-02-26T20:25:12;8.50;;;4.80;;
48897;SDS011;34713;50.038;20.000;2023-02-26T20:27:40;9.90;;;5.00;;
48897;SDS011;34713;50.038;20.000;2023-02-26T20:30:08;8.70;;;4.90;;
48897;SDS011;34713;50.038;20.000;2023-02-26T20:32:36;9.00;;;5.00;;
48897;SDS011;34713;50.038;20.000;2023-02-26T20:35:03;8.60;;;4.90;;
48897;SDS011;34713;50.038;20.000;2023-02-26T20:37:30;7.80;;;4.70;;
48897;SDS011;34713;50.038;20.000;2023-02-26T20:39:57;11.30;;;5.30;;
48897;SDS011;34713;50.038;20.000;2023-02-26T20:42:23;6.60;;;4.20;;
48897;SDS011;34713;50.038;20.000;2023-02-26T20:44:50;8.80;;;4.20;;
48897;SDS011;34713;50.038;20.000;2023-02-26T20:47:17;10.20;;;4.30;;
48897;SDS011;34713;50.038;20.000;2023-02-26T20:49:44;8.50;;;4.20;;
48897;SDS011;34713;50.038;20.000;2023-02-26T20:52:10;10.00;;;5.10;;
48897;SDS011;34713;50.038;20.000;2023-02-26T20:54:37;10.30;;;4.50;;
48897;SDS011;34713;50.038;20.000;2023-02-26T20:57:04;11.10;;;4.50;;
48897;SDS011;34713;50.038;20.000;2023-02-26T20:59:31;10.80;;;4.50;;
48897;SDS011;34713;50.038;20.000;2023-02-26T21:01:58;9.00;;;4.40;;
48897;SDS011;34713;50.038;20.000;2023-02-26T21:04:25;8.20;;;4.40;;
48897;SDS011;34713;50.038;20.000;2023-02-26T21:06:54;8.90;;;4.50;;
48897;SDS011;34713;50.038;20.000;2023-02-26T21:09:38;10.10;;;4.50;;
48897;SDS011;34713;50.038;20.000;2023-02-26T21:12:05;10.20;;;5.10;;
48897;SDS011;34713;50.038;20.000;2023-02-26T21:14:32;10.60;;;5.40;;
48897;SDS011;34713;50.038;20.000;2023-02-26T21:17:02;8.30;;;4.30;;
48897;SDS011;34713;50.038;20.000;2023-02-26T21:19:29;9.20;;;5.10;;
48897;SDS011;34713;50.038;20.000;2023-02-26T21:21:57;9.60;;;5.00;;
48897;SDS011;34713;50.038;20.000;2023-02-26T21:24:26;11.20;;;5.10;;
48897;SDS011;34713;50.038;20.000;2023-02-26T21:26:53;10.10;;;5.40;;
48897;SDS011;34713;50.038;20.000;2023-02-26T21:29:21;10.10;;;5.00;;
48897;SDS011;34713;50.038;20.000;2023-02-26T21:31:48;12.60;;;5.30;;
48897;SDS011;34713;50.038;20.000;2023-02-26T21:34:19;9.70;;;5.00;;
48897;SDS011;34713;50.038;20.000;2023-02-26T21:36:46;11.40;;;4.70;;
48897;SDS011;34713;50.038;20.000;2023-02-26T21:39:13;9.70;;;5.10;;
48897;SDS011;34713;50.038;20.000;2023-02-26T21:41:40;10.40;;;4.60;;
48897;SDS011;34713;50.038;20.000;2023-02-26T21:44:21;8.90;;;4.70;;
48897;SDS011;34713;50.038;20.000;2023-02-26T21:46:48;14.20;;;5.50;;
48897;SDS011;34713;50.038;20.000;2023-02-26T21:49:15;9.20;;;4.80;;
48897;SDS011;34713;50.038;20.000;2023-02-26T21:51:41;8.80;;;4.80;;
48897;SDS011;34713;50.038;20.000;2023-02-26T21:54:08;9.90;;;4.90;;
48897;SDS011;34713;50.038;20.000;2023-02-26T21:56:35;7.90;;;4.40;;
48897;SDS011;34713;50.038;20.000;2023-02-26T21:59:03;9.90;;;4.70;;
48897;SDS011;34713;50.038;20.000;2023-02-26T22:01:30;6.70;;;4.00;;
48897;SDS011;34713;50.038;20.000;2023-02-26T22:03:57;7.50;;;4.30;;
48897;SDS011;34713;50.038;20.000;2023-02-26T22:06:23;12.00;;;5.80;;
48897;SDS011;34713;50.038;20.000;2023-02-26T22:08:50;10.00;;;5.00;;
48897;SDS011;34713;50.038;20.000;2023-02-26T22:11:17;10.80;;;4.50;;
48897;SDS011;34713;50.038;20.000;2023-02-26T22:13:43;8.80;;;4.60;;
48897;SDS011;34713;50.038;20.000;2023-02-26T22:16:10;9.70;;;5.50;;
48897;SDS011;34713;50.038;20.000;2023-02-26T22:18:38;9.20;;;4.50;;
48897;SDS011;34713;50.038;20.000;2023-02-26T22:21:05;13.00;;;5.40;;
48897;SDS011;34713;50.038;20.000;2023-02-26T22:23:32;8.10;;;4.00;;
48897;SDS011;34713;50.038;20.000;2023-02-26T22:25:58;8.20;;;4.40;;
48897;SDS011;34713;50.038;20.000;2023-02-26T22:28:25;12.30;;;5.30;;
48897;SDS011;34713;50.038;20.000;2023-02-26T22:30:52;8.90;;;3.80;;
48897;SDS011;34713;50.038;20.000;2023-02-26T22:33:21;9.40;;;5.10;;
48897;SDS011;34713;50.038;20.000;2023-02-26T22:35:49;10.70;;;5.10;;
48897;SDS011;34713;50.038;20.000;2023-02-26T22:38:20;8.70;;;4.70;;
48897;SDS011;34713;50.038;20.000;2023-02-26T22:40:47;8.30;;;4.70;;
48897;SDS011;34713;50.038;20.000;2023-02-26T22:43:17;8.50;;;4.60;;
48897;SDS011;34713;50.038;20.000;2023-02-26T22:45:49;9.30;;;4.60;;
48897;SDS011;34713;50.038;20.000;2023-02-26T22:48:16;8.80;;;4.60;;
48897;SDS011;34713;50.038;20.000;2023-02-26T22:50:43;11.30;;;4.70;;
48897;SDS011;34713;50.038;20.000;2023-02-26T22:53:10;8.40;;;4.60;;
48897;SDS011;34713;50.038;20.000;2023-02-26T22:55:37;8.80;;;4.90;;
48897;SDS011;34713;50.038;20.000;2023-02-26T22:58:03;9.60;;;4.30;;
48897;SDS011;34713;50.038;20.000;2023-02-26T23:00:30;7.90;;;4.40;;
48897;SDS011;34713;50.038;20.000;2023-02-26T23:02:57;8.00;;;4.00;;
48897;SDS011;34713;50.038;20.000;2023-02-26T23:05:24;9.30;;;4.70;;
48897;SDS011;34713;50.038;20.000;2023-02-26T23:07:51;9.20;;;4.60;;
48897;SDS011;34713;50.038;20.000;2023-02-26T23:10:25;10.00;;;4.60;;
48897;SDS011;34713;50.038;20.000;2023-02-26T23:12:52;9.60;;;4.80;;
48897;SDS011;34713;50.038;20.000;2023-02-26T23:15:19;9.10;;;4.90;;
48897;SDS011;34713;50.038;20.000;2023-02-26T23:17:56;10.80;;;5.80;;
48897;SDS011;34713;50.038;20.000;2023-02-26T23:20:25;11.40;;;4.60;;
48897;SDS011;34713;50.038;20.000;2023-02-26T23:22:52;12.80;;;5.30;;
48897;SDS011;34713;50.038;20.000;2023-02-26T23:25:19;10.40;;;5.70;;
48897;SDS011;34713;50.038;20.000;2023-02-26T23:27:48;11.30;;;6.00;;
48897;SDS011;34713;50.038;20.000;2023-02-26T23:30:15;10.40;;;5.70;;
48897;SDS011;34713;50.038;20.000;2023-02-26T23:32:42;10.30;;;5.60;;
48897;SDS011;34713;50.038;20.000;2023-02-26T23:35:09;9.90;;;5.80;;
48897;SDS011;34713;50.038;20.000;2023-02-26T23:37:36;13.50;;;6.30;;
48897;SDS011;34713;50.038;20.000;2023-02-26T23:40:23;11.90;;;6.40;;
48897;SDS011;34713;50.038;20.000;2023-02-26T23:42:50;14.60;;;7.00;;
48897;SDS011;34713;50.038;20.000;2023-02-26T23:45:18;16.70;;;7.50;;
48897;SDS011;34713;50.038;20.000;2023-02-26T23:47:50;16.00;;;7.70;;
48897;SDS011;34713;50.038;20.000;2023-02-26T23:50:17;18.80;;;8.60;;
48897;SDS011;34713;50.038;20.000;2023-02-26T23:52:48;14.80;;;7.20;;
48897;SDS011;34713;50.038;20.000;2023-02-26T23:55:15;15.40;;;7.80;;
48897;SDS011;34713;50.038;20.000;2023-02-26T23:57:43;18.30;;;8.60;;
